Time;durP1;ratioP1;P1;durP2;ratioP2;P2;SDS_P1;SDS_P2;PMS_P1;PMS_P2;Temp;Humidity;BMP_temperature;BMP_pressure;BME280_temperature;BME280_humidity;BME280_pressure;Samples;Min_cycle;Max_cycle;Signal;HPM_P1;HPM_P2
2023/07/18 00:01:59;;;;;;;12.75;4.40;;;15.50;99.90;;;;;;5032427;28;20427;-76
2023/07/18 00:04:27;;;;;;;10.33;4.63;;;15.40;99.90;;;;;;4996918;28;20507;-75
2023/07/18 00:06:54;;;;;;;11.80;4.83;;;15.40;99.90;;;;;;5013313;28;20427;-75
2023/07/18 00:09:20;;;;;;;15.87;5.20;;;15.40;99.90;;;;;;5029135;28;20909;-76
2023/07/18 00:11:47;;;;;;;17.30;5.82;;;15.20;99.90;;;;;;5031001;28;20403;-76
2023/07/18 00:14:13;;;;;;;14.53;4.90;;;15.20;99.90;;;;;;5013222;28;20976;-77
2023/07/18 00:16:39;;;;;;;12.63;5.25;;;;;;;;;;4998070;28;20410;-76
2023/07/18 00:19:05;;;;;;;14.75;4.85;;;14.90;99.90;;;;;;5022951;28;20498;-76
2023/07/18 00:21:31;;;;;;;12.43;4.97;;;;;;;;;;5014222;28;20507;-76
2023/07/18 00:23:59;;;;;;;16.23;5.00;;;15.20;99.90;;;;;;5029247;28;20415;-75
2023/07/18 00:26:25;;;;;;;10.93;4.85;;;15.10;99.90;;;;;;4969143;28;20423;-75
2023/07/18 00:28:53;;;;;;;12.35;4.75;;;;;;;;;;5014137;28;20405;-75
2023/07/18 00:31:19;;;;;;;13.13;5.22;;;15.00;99.90;;;;;;4993345;28;20928;-75
2023/07/18 00:33:45;;;;;;;14.05;5.03;;;15.00;99.90;;;;;;5021598;28;20442;-77
2023/07/18 00:36:11;;;;;;;13.13;5.03;;;14.80;99.90;;;;;;5010260;28;20427;-77
2023/07/18 00:38:37;;;;;;;14.75;5.15;;;14.90;99.90;;;;;;5013781;28;20514;-77
2023/07/18 00:41:04;;;;;;;13.15;5.50;;;14.90;99.90;;;;;;4981317;28;20955;-77
2023/07/18 00:43:32;;;;;;;12.32;5.05;;;;;;;;;;4980148;28;20507;-76
2023/07/18 00:45:57;;;;;;;12.43;5.20;;;14.90;99.90;;;;;;4995769;28;20419;-77
2023/07/18 00:48:23;;;;;;;11.77;5.17;;;15.00;99.90;;;;;;4986510;28;20499;-76
2023/07/18 00:50:49;;;;;;;10.52;4.57;;;15.00;99.90;;;;;;5012013;28;20449;-77
2023/07/18 00:53:14;;;;;;;15.25;5.47;;;15.00;99.90;;;;;;5011955;28;20545;-77
2023/07/18 00:55:41;;;;;;;13.48;5.05;;;15.10;99.90;;;;;;5014003;28;20410;-76
2023/07/18 00:58:08;;;;;;;15.40;5.43;;;15.00;99.90;;;;;;4980427;28;20487;-76
2023/07/18 01:00:33;;;;;;;15.10;5.30;;;15.00;99.90;;;;;;5013485;28;20419;-77
2023/07/18 01:02:59;;;;;;;13.32;4.53;;;14.90;99.90;;;;;;5014003;28;20410;-77
2023/07/18 01:05:25;;;;;;;14.77;5.20;;;14.90;99.90;;;;;;5012373;28;20419;-77
2023/07/18 01:07:51;;;;;;;15.40;5.20;;;15.00;99.90;;;;;;4984700;28;20508;-77
2023/07/18 01:10:25;;;;;;;14.25;5.00;;;14.90;99.90;;;;;;4983729;28;20492;-78
2023/07/18 01:12:56;;;;;;;10.70;4.60;;;14.90;99.90;;;;;;5015799;28;20498;-77
2023/07/18 01:15:22;;;;;;;15.48;4.85;;;14.90;99.90;;;;;;4982159;28;20471;-77
2023/07/18 01:17:49;;;;;;;14.23;4.90;;;15.00;99.90;;;;;;4992870;28;20779;-77
2023/07/18 01:20:35;;;;;;;14.40;5.53;;;14.90;99.90;;;;;;5016264;28;20425;-77
2023/07/18 01:23:05;;;;;;;13.65;5.60;;;14.60;99.90;;;;;;5014519;28;20415;-76
2023/07/18 01:25:31;;;;;;;17.67;5.50;;;14.80;99.90;;;;;;5015945;28;20414;-76
2023/07/18 01:27:59;;;;;;;13.75;5.68;;;14.80;99.90;;;;;;4984816;28;20419;-76
2023/07/18 01:30:26;;;;;;;15.00;5.15;;;14.80;99.90;;;;;;5015294;28;20436;-77
2023/07/18 01:32:52;;;;;;;14.95;5.53;;;14.70;99.90;;;;;;5017239;28;20407;-76
2023/07/18 01:35:21;;;;;;;16.33;5.67;;;14.80;99.90;;;;;;5015155;28;20814;-76
2023/07/18 01:37:47;;;;;;;13.90;5.85;;;14.70;99.90;;;;;;5017142;28;20402;-77
2023/07/18 01:40:20;;;;;;;17.65;5.78;;;14.80;99.90;;;;;;4995029;28;21103;-76
2023/07/18 01:42:46;;;;;;;18.05;5.97;;;14.90;99.90;;;;;;5014982;28;20434;-76
2023/07/18 01:45:12;;;;;;;19.20;5.65;;;14.60;99.90;;;;;;5003029;28;20421;-77
2023/07/18 01:47:39;;;;;;;16.00;5.63;;;14.70;99.90;;;;;;5013966;28;20504;-76
2023/07/18 01:50:06;;;;;;;17.08;5.57;;;14.80;99.90;;;;;;5012985;28;20487;-76
2023/07/18 01:52:33;;;;;;;17.57;5.90;;;14.80;99.90;;;;;;4994627;28;20422;-76
2023/07/18 01:55:00;;;;;;;14.68;5.70;;;14.40;99.90;;;;;;5000766;28;20407;-76
2023/07/18 01:57:41;;;;;;;13.10;5.93;;;14.60;99.90;;;;;;5016716;28;20411;-77
2023/07/18 02:00:12;;;;;;;15.27;6.03;;;14.40;99.90;;;;;;4987706;28;20463;-77
2023/07/18 02:02:41;;;;;;;14.25;6.22;;;14.60;99.90;;;;;;5012809;28;20426;-76
2023/07/18 02:05:08;;;;;;;17.33;6.00;;;14.60;99.90;;;;;;5015318;28;20419;-76
2023/07/18 02:07:34;;;;;;;15.02;5.88;;;14.30;99.90;;;;;;5015931;28;20403;-76
2023/07/18 02:10:00;;;;;;;14.10;6.10;;;14.20;99.90;;;;;;5009975;28;20421;-77
2023/07/18 02:12:26;;;;;;;14.77;6.05;;;14.50;99.90;;;;;;5016279;28;20449;-76
2023/07/18 02:14:52;;;;;;;14.82;5.97;;;14.60;99.90;;;;;;4997158;28;20467;-77
2023/07/18 02:17:18;;;;;;;14.48;6.13;;;14.30;99.90;;;;;;5016597;28;20446;-77
2023/07/18 02:19:44;;;;;;;17.73;6.18;;;14.40;99.90;;;;;;4998703;28;20435;-77
2023/07/18 02:22:09;;;;;;;12.63;6.03;;;14.40;99.90;;;;;;5012855;28;20981;-77
2023/07/18 02:24:35;;;;;;;15.70;5.63;;;14.40;99.90;;;;;;5016182;28;20426;-77
2023/07/18 02:27:01;;;;;;;16.17;5.90;;;14.50;99.90;;;;;;4985260;28;20428;-77
2023/07/18 02:29:27;;;;;;;15.00;6.10;;;14.40;99.90;;;;;;5007940;28;20424;-77
2023/07/18 02:31:53;;;;;;;13.10;5.80;;;14.30;99.90;;;;;;5014013;28;20883;-76
2023/07/18 02:34:19;;;;;;;19.33;6.65;;;14.20;99.90;;;;;;4980117;28;20428;-76
2023/07/18 02:36:45;;;;;;;15.03;6.10;;;14.40;99.90;;;;;;4996448;28;20415;-76
2023/07/18 02:39:11;;;;;;;18.92;6.13;;;14.20;99.90;;;;;;4980436;28;20405;-77
2023/07/18 02:41:37;;;;;;;13.82;6.15;;;14.30;99.90;;;;;;5013398;28;20439;-77
2023/07/18 02:44:05;;;;;;;17.45;6.65;;;14.20;99.90;;;;;;4997003;28;20429;-77
2023/07/18 02:46:30;;;;;;;17.92;6.65;;;14.20;99.90;;;;;;5010454;28;21303;-77
2023/07/18 02:48:56;;;;;;;17.67;6.40;;;14.20;99.90;;;;;;5015663;28;20430;-76
2023/07/18 02:51:22;;;;;;;17.65;6.13;;;14.20;99.90;;;;;;4998409;28;20516;-76
2023/07/18 02:53:51;;;;;;;15.40;6.05;;;14.30;99.90;;;;;;5014416;28;20426;-77
2023/07/18 02:56:17;;;;;;;16.58;6.10;;;14.10;99.90;;;;;;4981920;28;20437;-76
2023/07/18 02:58:43;;;;;;;20.95;7.05;;;14.20;99.90;;;;;;5013555;28;20423;-76
2023/07/18 03:01:09;;;;;;;18.83;6.17;;;14.30;99.90;;;;;;4994453;28;20426;-75
2023/07/18 03:03:38;;;;;;;16.30;6.30;;;14.10;99.90;;;;;;4998126;28;20423;-76
2023/07/18 03:06:04;;;;;;;19.60;6.30;;;14.30;99.90;;;;;;4995521;28;20416;-78
2023/07/18 03:08:32;;;;;;;17.77;6.88;;;14.20;99.90;;;;;;4997159;28;20919;-77
2023/07/18 03:11:02;;;;;;;18.17;6.60;;;14.30;99.90;;;;;;4998404;28;20502;-77
2023/07/18 03:13:28;;;;;;;16.25;6.40;;;14.20;99.90;;;;;;4999000;28;20414;-77
2023/07/18 03:15:55;;;;;;;16.77;6.40;;;14.20;99.90;;;;;;5013107;28;20427;-77
2023/07/18 03:18:21;;;;;;;17.05;6.15;;;14.20;99.90;;;;;;4995235;28;20428;-78
2023/07/18 03:20:47;;;;;;;17.58;6.40;;;14.20;99.90;;;;;;5010260;28;20978;-78
2023/07/18 03:23:12;;;;;;;19.55;6.85;;;14.30;99.90;;;;;;5014106;28;20414;-75
2023/07/18 03:25:38;;;;;;;19.45;6.38;;;14.30;99.90;;;;;;5014449;28;20493;-75
2023/07/18 03:28:04;;;;;;;16.77;6.40;;;14.00;99.90;;;;;;5013242;28;20463;-75
2023/07/18 03:30:30;;;;;;;19.10;6.67;;;;;;;;;;5014128;28;20526;-76
2023/07/18 03:32:56;;;;;;;18.60;6.57;;;13.80;99.90;;;;;;5014065;28;20426;-76
2023/07/18 03:35:21;;;;;;;19.80;6.60;;;13.80;99.90;;;;;;5012035;28;20450;-77
2023/07/18 03:37:47;;;;;;;18.52;6.60;;;14.00;99.90;;;;;;4997406;28;20428;-76
2023/07/18 03:40:16;;;;;;;16.95;6.57;;;14.20;99.90;;;;;;4997268;28;20573;-77
2023/07/18 03:42:43;;;;;;;19.58;6.78;;;14.00;99.90;;;;;;5014755;28;20403;-76
2023/07/18 03:45:10;;;;;;;19.50;6.63;;;14.10;99.90;;;;;;5014910;28;20402;-77
2023/07/18 03:47:37;;;;;;;17.73;7.00;;;13.70;99.90;;;;;;4994824;28;20432;-76
2023/07/18 03:50:03;;;;;;;17.40;6.43;;;13.70;99.90;;;;;;5013894;28;20419;-76
2023/07/18 03:52:28;;;;;;;14.02;6.65;;;14.00;99.90;;;;;;4997270;28;20446;-75
2023/07/18 03:54:54;;;;;;;19.03;7.13;;;13.90;99.90;;;;;;4998074;28;20422;-76
2023/07/18 03:57:20;;;;;;;19.07;6.50;;;13.70;99.90;;;;;;4997993;28;20410;-77
2023/07/18 03:59:46;;;;;;;15.77;6.17;;;;;;;;;;4994688;28;20443;-77
2023/07/18 04:02:14;;;;;;;18.77;6.47;;;14.00;99.90;;;;;;5008031;28;20431;-77
2023/07/18 04:04:41;;;;;;;22.53;7.37;;;14.10;99.90;;;;;;5014554;28;20406;-77
2023/07/18 04:07:07;;;;;;;18.58;6.32;;;14.20;99.90;;;;;;4980953;28;20502;-77
2023/07/18 04:09:34;;;;;;;15.65;5.97;;;13.80;99.90;;;;;;5010248;28;20756;-77
2023/07/18 04:12:00;;;;;;;19.65;6.55;;;14.10;99.90;;;;;;4999562;28;20508;-77
2023/07/18 04:14:26;;;;;;;17.80;6.78;;;14.20;99.90;;;;;;5007055;28;20825;-77
2023/07/18 04:16:52;;;;;;;17.48;6.55;;;14.10;99.90;;;;;;4997234;28;20753;-76
2023/07/18 04:19:18;;;;;;;17.23;6.40;;;13.90;99.90;;;;;;4993261;28;20847;-77
2023/07/18 04:21:44;;;;;;;13.38;7.07;;;14.10;99.90;;;;;;4993736;28;20789;-78
2023/07/18 04:24:10;;;;;;;21.05;6.95;;;13.90;99.90;;;;;;5010851;28;20453;-78
2023/07/18 04:26:36;;;;;;;16.77;6.70;;;13.90;99.90;;;;;;5012905;28;20418;-78
2023/07/18 04:29:04;;;;;;;17.05;6.78;;;13.80;99.90;;;;;;5013738;28;20460;-78
2023/07/18 04:31:30;;;;;;;15.52;6.38;;;14.00;99.90;;;;;;5012953;28;20473;-77
2023/07/18 04:33:56;;;;;;;18.53;6.60;;;14.10;99.90;;;;;;5013068;28;20435;-77
2023/07/18 04:36:22;;;;;;;15.02;6.50;;;14.10;99.90;;;;;;4995280;28;20916;-77
2023/07/18 04:38:48;;;;;;;15.07;6.85;;;14.20;99.90;;;;;;4997151;28;20934;-77
2023/07/18 04:41:13;;;;;;;18.30;6.43;;;14.20;99.90;;;;;;5013818;28;20427;-77
2023/07/18 04:43:39;;;;;;;16.98;6.82;;;13.70;99.90;;;;;;5012774;28;20430;-77
2023/07/18 04:46:05;;;;;;;16.90;6.75;;;14.10;99.90;;;;;;4997521;28;20489;-77
2023/07/18 04:48:30;;;;;;;15.18;7.03;;;13.90;99.90;;;;;;4981306;28;20407;-77
2023/07/18 04:50:59;;;;;;;14.80;6.57;;;14.20;99.90;;;;;;5013135;28;20415;-77
2023/07/18 04:53:31;;;;;;;16.85;6.80;;;14.10;99.90;;;;;;5010940;28;20426;-77
2023/07/18 04:55:57;;;;;;;18.60;7.38;;;;;;;;;;4997781;28;20502;-77
2023/07/18 04:58:25;;;;;;;17.98;6.93;;;14.20;99.90;;;;;;5012948;28;20481;-78
2023/07/18 05:00:51;;;;;;;14.43;6.78;;;14.20;99.90;;;;;;4996816;28;20435;-78
2023/07/18 05:03:17;;;;;;;15.63;6.78;;;14.30;99.90;;;;;;5012004;28;20469;-77
2023/07/18 05:05:43;;;;;;;18.45;7.07;;;14.30;99.90;;;;;;4994439;28;20415;-77
2023/07/18 05:08:09;;;;;;;19.25;6.82;;;14.20;99.90;;;;;;4997507;28;20898;-77
2023/07/18 05:10:35;;;;;;;18.08;7.32;;;14.20;99.90;;;;;;4987607;28;20424;-77
2023/07/18 05:13:01;;;;;;;17.45;7.25;;;;;;;;;;4999493;28;20482;-78
2023/07/18 05:15:26;;;;;;;15.57;6.70;;;14.30;99.90;;;;;;4995976;28;20427;-77
2023/07/18 05:17:52;;;;;;;16.20;6.68;;;14.00;99.90;;;;;;5013510;28;20403;-77
2023/07/18 05:20:19;;;;;;;16.92;6.90;;;14.70;99.90;;;;;;5011079;28;20426;-78
2023/07/18 05:22:45;;;;;;;19.33;7.60;;;14.30;99.90;;;;;;4997755;28;20453;-77
2023/07/18 05:25:12;;;;;;;17.83;6.70;;;14.30;99.90;;;;;;5013391;28;20427;-78
2023/07/18 05:27:39;;;;;;;19.88;7.40;;;14.50;99.90;;;;;;5011478;28;20421;-78
2023/07/18 05:30:10;;;;;;;19.67;7.10;;;14.40;99.90;;;;;;5014202;28;20431;-78
2023/07/18 05:32:35;;;;;;;18.60;6.85;;;14.50;99.90;;;;;;5014352;28;20411;-77
2023/07/18 05:35:01;;;;;;;16.02;7.57;;;14.40;99.90;;;;;;5010584;28;20417;-77
2023/07/18 05:37:29;;;;;;;18.67;6.70;;;14.50;99.90;;;;;;4981088;28;20410;-78
2023/07/18 05:39:55;;;;;;;17.20;7.03;;;14.80;99.90;;;;;;5012581;28;20470;-78
2023/07/18 05:42:21;;;;;;;14.73;6.40;;;14.50;99.90;;;;;;4996692;28;20422;-78
2023/07/18 05:44:48;;;;;;;16.10;6.93;;;14.90;99.90;;;;;;4980412;28;20404;-77
2023/07/18 05:47:13;;;;;;;15.57;6.43;;;14.80;99.90;;;;;;5013245;28;20403;-78
2023/07/18 05:49:39;;;;;;;17.33;6.77;;;15.10;99.90;;;;;;5019362;28;20432;-78
2023/07/18 05:52:05;;;;;;;16.40;6.40;;;15.10;99.90;;;;;;4977386;28;20506;-78
2023/07/18 05:54:30;;;;;;;15.32;6.43;;;15.10;99.90;;;;;;4996366;28;20414;-79
2023/07/18 05:57:00;;;;;;;13.77;6.20;;;15.10;99.90;;;;;;4982487;28;20422;-78
2023/07/18 05:59:26;;;;;;;16.15;6.00;;;15.10;99.90;;;;;;4999330;28;20470;-78
2023/07/18 06:01:52;;;;;;;14.38;5.93;;;15.30;99.90;;;;;;5012534;28;20443;-77
2023/07/18 06:04:18;;;;;;;15.50;6.00;;;15.50;99.90;;;;;;5013664;28;20415;-78
2023/07/18 06:06:44;;;;;;;15.07;5.72;;;15.90;99.90;;;;;;5013225;28;20518;-79
2023/07/18 06:09:11;;;;;;;13.93;5.20;;;15.80;99.90;;;;;;5010071;28;20485;-79
2023/07/18 06:11:37;;;;;;;16.55;5.30;;;15.80;99.90;;;;;;4991624;28;20812;-80
2023/07/18 06:14:05;;;;;;;18.27;6.53;;;15.50;99.90;;;;;;5012438;28;20510;-80
2023/07/18 06:16:31;;;;;;;19.55;7.22;;;15.70;99.90;;;;;;5011118;28;20518;-77
2023/07/18 06:18:57;;;;;;;15.87;5.93;;;15.90;99.90;;;;;;5012332;28;20514;-79
2023/07/18 06:21:26;;;;;;;17.47;6.07;;;16.10;99.90;;;;;;4993534;28;20923;-79
2023/07/18 06:23:52;;;;;;;19.43;5.97;;;15.80;99.90;;;;;;5012301;28;20686;-81
2023/07/18 06:26:18;;;;;;;16.08;6.00;;;15.80;99.90;;;;;;5011385;28;20430;-78
2023/07/18 06:28:44;;;;;;;13.10;5.50;;;16.40;99.90;;;;;;4998884;28;20419;-79
2023/07/18 06:31:10;;;;;;;16.17;5.43;;;16.00;99.90;;;;;;5007906;28;20892;-79
2023/07/18 06:33:37;;;;;;;15.47;5.77;;;16.10;99.90;;;;;;4984114;28;20990;-79
2023/07/18 06:36:03;;;;;;;15.77;5.63;;;16.40;99.90;;;;;;4981438;28;20786;-79
2023/07/18 06:38:29;;;;;;;15.27;5.97;;;16.40;99.90;;;;;;4996806;28;20483;-79
2023/07/18 06:40:55;;;;;;;14.73;5.80;;;16.60;99.90;;;;;;4994119;28;20423;-78
2023/07/18 06:43:21;;;;;;;13.83;5.30;;;16.70;99.90;;;;;;4997223;28;20485;-78
2023/07/18 06:45:47;;;;;;;17.90;5.65;;;16.80;99.90;;;;;;5008735;28;20771;-77
2023/07/18 06:48:16;;;;;;;12.77;4.80;;;16.90;99.90;;;;;;4993485;28;20920;-79
2023/07/18 06:50:47;;;;;;;15.48;5.05;;;17.00;99.90;;;;;;5015376;28;20428;-78
2023/07/18 06:53:18;;;;;;;17.80;5.30;;;17.00;99.90;;;;;;5011930;28;20930;-77
2023/07/18 06:55:48;;;;;;;13.27;4.57;;;16.90;99.90;;;;;;5015947;28;20466;-77
2023/07/18 06:58:15;;;;;;;14.45;5.00;;;17.40;99.90;;;;;;5014267;28;20454;-79
2023/07/18 07:00:41;;;;;;;15.30;5.20;;;17.10;99.90;;;;;;5010639;28;20795;-79
2023/07/18 07:03:08;;;;;;;14.93;4.72;;;17.20;99.90;;;;;;4980217;28;20467;-78
2023/07/18 07:05:41;;;;;;;13.20;4.40;;;17.10;99.90;;;;;;4995150;28;20428;-78
2023/07/18 07:08:08;;;;;;;11.35;4.53;;;17.00;99.90;;;;;;5013921;28;20996;-78
2023/07/18 07:10:41;;;;;;;15.65;4.40;;;17.00;99.90;;;;;;4979980;28;20763;-78
2023/07/18 07:13:08;;;;;;;13.13;4.15;;;17.20;99.90;;;;;;4993336;28;20424;-78
2023/07/18 07:15:34;;;;;;;12.93;4.45;;;17.60;99.90;;;;;;5010734;28;20468;-79
2023/07/18 07:18:00;;;;;;;17.08;4.80;;;17.70;99.90;;;;;;5011872;28;20819;-78
2023/07/18 07:20:28;;;;;;;13.35;4.72;;;17.80;99.90;;;;;;5007305;28;20420;-79
2023/07/18 07:22:54;;;;;;;12.40;4.70;;;17.80;99.90;;;;;;4997046;28;20993;-79
2023/07/18 07:25:20;;;;;;;13.67;4.90;;;18.20;99.90;;;;;;5000674;28;20468;-78
2023/07/18 07:27:46;;;;;;;14.73;5.00;;;18.30;99.90;;;;;;4995672;28;20416;-77
2023/07/18 07:30:15;;;;;;;16.85;5.00;;;18.40;99.90;;;;;;5010287;28;20787;-79
2023/07/18 07:32:45;;;;;;;16.27;5.25;;;18.50;99.90;;;;;;4994740;28;20431;-79
2023/07/18 07:35:11;;;;;;;15.82;4.95;;;18.80;99.90;;;;;;5024207;28;20438;-80
2023/07/18 07:37:40;;;;;;;14.37;4.83;;;18.50;99.90;;;;;;5008219;28;20533;-79
2023/07/18 07:40:09;;;;;;;17.88;4.97;;;18.60;99.90;;;;;;5003994;28;20430;-80
2023/07/18 07:42:35;;;;;;;14.88;4.70;;;18.80;99.90;;;;;;5008408;28;20419;-79
2023/07/18 07:45:00;;;;;;;14.48;5.30;;;19.00;99.90;;;;;;4984761;28;20425;-79
2023/07/18 07:47:26;;;;;;;13.30;4.90;;;19.00;99.90;;;;;;4998284;28;20446;-79
2023/07/18 07:49:52;;;;;;;12.63;4.28;;;19.50;99.90;;;;;;5011725;28;20787;-80
2023/07/18 07:52:17;;;;;;;12.53;4.90;;;20.00;99.90;;;;;;4978541;28;20438;-79
2023/07/18 07:54:44;;;;;;;15.13;5.18;;;19.70;99.90;;;;;;4996446;28;20996;-78
2023/07/18 07:57:10;;;;;;;16.00;6.03;;;19.90;99.90;;;;;;5008235;28;20479;-80
2023/07/18 07:59:36;;;;;;;15.27;5.28;;;20.20;99.90;;;;;;5011214;28;20772;-79
2023/07/18 08:02:03;;;;;;;15.30;5.32;;;19.90;99.90;;;;;;4993662;28;20428;-80
2023/07/18 08:04:28;;;;;;;18.13;5.17;;;19.90;99.90;;;;;;5012453;28;20487;-77
2023/07/18 08:06:55;;;;;;;16.30;4.90;;;19.60;99.90;;;;;;4975059;28;20511;-77
2023/07/18 08:09:22;;;;;;;15.32;4.32;;;20.10;99.90;;;;;;4991031;28;20418;-77
2023/07/18 08:11:48;;;;;;;14.82;5.00;;;19.70;99.90;;;;;;4985935;28;20425;-79
2023/07/18 08:14:14;;;;;;;16.48;4.95;;;20.10;99.90;;;;;;4991515;28;20503;-79
2023/07/18 08:16:41;;;;;;;16.55;5.00;;;20.00;99.90;;;;;;5002622;28;20935;-79
2023/07/18 08:19:07;;;;;;;14.27;5.10;;;19.90;99.90;;;;;;4981595;28;20450;-76
2023/07/18 08:21:34;;;;;;;11.43;4.87;;;20.00;99.90;;;;;;5003464;28;20944;-79
2023/07/18 08:24:00;;;;;;;14.23;5.00;;;20.10;99.90;;;;;;4989366;28;20445;-79
2023/07/18 08:26:26;;;;;;;12.27;4.20;;;20.80;99.90;;;;;;5010897;28;20519;-79
2023/07/18 08:28:51;;;;;;;12.65;4.40;;;20.40;99.90;;;;;;4983598;28;20505;-79
2023/07/18 08:31:19;;;;;;;14.60;4.32;;;20.70;99.90;;;;;;4981807;28;20439;-79
2023/07/18 08:33:45;;;;;;;9.80;4.00;;;20.90;99.90;;;;;;4989337;28;20512;-79
2023/07/18 08:36:11;;;;;;;13.13;4.22;;;21.10;99.90;;;;;;4979238;28;20815;-79
2023/07/18 08:38:37;;;;;;;12.05;4.32;;;21.20;99.90;;;;;;5012933;28;20493;-79
2023/07/18 08:41:03;;;;;;;12.73;4.55;;;21.30;99.90;;;;;;5012106;28;20423;-80
2023/07/18 08:43:31;;;;;;;10.98;4.00;;;21.70;99.90;;;;;;4996840;28;20457;-77
2023/07/18 08:45:57;;;;;;;12.80;3.72;;;21.80;99.90;;;;;;4998790;28;20415;-76
2023/07/18 08:48:24;;;;;;;9.57;3.97;;;21.70;99.90;;;;;;5009156;28;20446;-76
2023/07/18 08:50:53;;;;;;;10.68;3.67;;;21.80;99.90;;;;;;5009142;28;20776;-77
2023/07/18 08:53:19;;;;;;;13.55;3.65;;;21.80;99.90;;;;;;5007053;28;20444;-75
2023/07/18 08:55:45;;;;;;;11.20;3.60;;;21.50;99.90;;;;;;4991210;28;20423;-76
2023/07/18 08:58:11;;;;;;;11.57;3.53;;;21.40;99.90;;;;;;4997739;28;20914;-76
2023/07/18 09:00:38;;;;;;;11.60;3.60;;;21.10;99.90;;;;;;5003936;28;20438;-76
2023/07/18 09:03:03;;;;;;;11.70;4.10;;;21.30;99.90;;;;;;4969057;28;20837;-75
2023/07/18 09:05:35;;;;;;;14.95;4.25;;;21.30;99.90;;;;;;5009739;28;20485;-76
2023/07/18 09:08:04;;;;;;;11.23;3.78;;;21.60;99.90;;;;;;5007937;28;20815;-76
2023/07/18 09:10:30;;;;;;;11.98;4.15;;;21.70;99.90;;;;;;4991759;28;22368;-76
2023/07/18 09:13:01;;;;;;;10.30;4.13;;;21.70;99.90;;;;;;5007215;28;20459;-76
2023/07/18 09:15:27;;;;;;;9.00;3.15;;;21.50;99.90;;;;;;4982322;28;21458;-76
2023/07/18 09:17:59;;;;;;;11.25;3.40;;;21.20;99.90;;;;;;5024913;28;20489;-76
2023/07/18 09:20:26;;;;;;;10.65;3.47;;;21.30;99.90;;;;;;5001876;28;20419;-76
2023/07/18 09:22:57;;;;;;;10.27;3.97;;;21.50;99.90;;;;;;4998568;28;20417;-76
2023/07/18 09:25:24;;;;;;;9.90;3.97;;;21.80;99.90;;;;;;5008600;28;20414;-76
2023/07/18 09:27:54;;;;;;;11.05;3.60;;;22.00;99.90;;;;;;5008846;28;20454;-77
2023/07/18 09:30:27;;;;;;;9.20;3.15;;;22.30;99.90;;;;;;5008637;28;20498;-76
2023/07/18 09:32:53;;;;;;;9.98;3.63;;;22.20;99.90;;;;;;5013257;28;20476;-76
2023/07/18 09:35:19;;;;;;;8.13;3.53;;;22.10;99.90;;;;;;5014456;28;20426;-76
2023/07/18 09:37:47;;;;;;;9.38;3.40;;;22.20;99.90;;;;;;4993580;28;20427;-76
2023/07/18 09:40:15;;;;;;;12.20;3.60;;;22.20;99.90;;;;;;5014953;28;20419;-75
2023/07/18 09:42:46;;;;;;;8.57;3.35;;;22.00;99.90;;;;;;4995951;28;20427;-77
2023/07/18 09:45:13;;;;;;;12.20;3.50;;;22.10;99.90;;;;;;5013645;28;20422;-76
2023/07/18 09:47:41;;;;;;;8.60;3.38;;;22.10;99.90;;;;;;5014130;28;20472;-75
2023/07/18 09:50:08;;;;;;;9.70;3.42;;;22.10;99.90;;;;;;5013594;28;20481;-77
2023/07/18 09:52:39;;;;;;;10.18;3.60;;;22.20;99.90;;;;;;5012090;28;20459;-77
2023/07/18 09:55:09;;;;;;;9.88;3.33;;;22.40;99.90;;;;;;5008255;28;20437;-76
2023/07/18 09:57:41;;;;;;;7.75;3.00;;;22.30;99.90;;;;;;5007990;28;20525;-76
2023/07/18 10:00:10;;;;;;;11.25;3.35;;;22.30;99.90;;;;;;5004261;28;20457;-76
2023/07/18 10:02:36;;;;;;;8.53;3.40;;;22.40;99.90;;;;;;5011655;28;20503;-76
2023/07/18 10:05:09;;;;;;;9.57;3.63;;;22.30;99.90;;;;;;5009534;28;20954;-76
2023/07/18 10:07:36;;;;;;;7.75;3.13;;;22.40;99.90;;;;;;5014239;28;20423;-77
2023/07/18 10:10:03;;;;;;;7.90;3.03;;;22.40;99.90;;;;;;5012839;28;20935;-77
2023/07/18 10:12:35;;;;;;;9.63;2.83;;;22.40;99.90;;;;;;5002934;28;20429;-76
2023/07/18 10:15:03;;;;;;;7.85;2.85;;;22.30;99.90;;;;;;5022459;28;20413;-77
2023/07/18 10:17:40;;;;;;;8.70;3.05;;;22.70;99.90;;;;;;5008756;28;20437;-76
2023/07/18 10:20:10;;;;;;;10.07;2.67;;;22.50;99.90;;;;;;5013194;28;20426;-76
2023/07/18 10:22:36;;;;;;;8.95;2.83;;;22.50;99.90;;;;;;5012171;28;20438;-76
2023/07/18 10:25:06;;;;;;;7.72;2.60;;;22.70;99.90;;;;;;4997307;28;20915;-77
2023/07/18 10:27:43;;;;;;;9.27;2.85;;;23.00;99.90;;;;;;4988158;28;20933;-76
2023/07/18 10:30:15;;;;;;;8.02;2.78;;;23.20;99.90;;;;;;5012980;28;20426;-77
2023/07/18 10:32:43;;;;;;;7.30;2.47;;;23.30;99.90;;;;;;5014032;28;20438;-77
2023/07/18 10:35:11;;;;;;;6.28;2.50;;;23.20;99.90;;;;;;4981320;28;20422;-76
2023/07/18 10:37:44;;;;;;;9.27;3.20;;;23.40;99.90;;;;;;5012083;28;20404;-75
2023/07/18 10:40:10;;;;;;;7.80;2.50;;;23.30;99.90;;;;;;4980387;28;20423;-77
2023/07/18 10:42:36;;;;;;;7.80;2.50;;;23.70;99.90;;;;;;5010978;28;20434;-77
2023/07/18 10:45:05;;;;;;;7.95;2.40;;;24.10;99.90;;;;;;5012871;28;20419;-79
2023/07/18 10:47:33;;;;;;;8.23;2.73;;;24.10;99.90;;;;;;5009188;28;20419;-78
2023/07/18 10:49:59;;;;;;;7.78;2.60;;;22.80;99.90;;;;;;4994086;28;20465;-78
2023/07/18 10:52:25;;;;;;;9.57;2.97;;;24.10;99.90;;;;;;5005469;28;20505;-79
2023/07/18 10:54:55;;;;;;;8.50;2.80;;;24.30;99.90;;;;;;4994189;28;20935;-78
2023/07/18 10:57:29;;;;;;;7.75;2.58;;;24.20;99.90;;;;;;5011454;28;20434;-77
2023/07/18 10:59:55;;;;;;;8.65;2.65;;;24.10;99.90;;;;;;5012465;28;20520;-78
2023/07/18 11:02:21;;;;;;;7.90;2.55;;;23.90;99.90;;;;;;4997129;28;20423;-78
2023/07/18 11:04:50;;;;;;;6.27;2.00;;;23.80;99.90;;;;;;4997312;28;20909;-74
2023/07/18 11:07:16;;;;;;;8.10;2.33;;;23.60;99.90;;;;;;5021102;28;21643;-76
2023/07/18 11:09:42;;;;;;;6.15;2.38;;;23.40;99.90;;;;;;5009864;28;20427;-74
2023/07/18 11:12:18;;;;;;;10.63;2.65;;;23.20;99.90;;;;;;5010425;28;20427;-76
2023/07/18 11:14:46;;;;;;;7.00;2.25;;;23.20;99.90;;;;;;5029768;28;20628;-76
2023/07/18 11:17:13;;;;;;;6.05;2.17;;;23.30;99.90;;;;;;5031012;28;20771;-75
2023/07/18 11:19:39;;;;;;;6.65;2.40;;;23.10;99.90;;;;;;5009319;28;20438;-75
2023/07/18 11:22:10;;;;;;;9.60;2.47;;;22.90;99.90;;;;;;5000579;28;20421;-76
2023/07/18 11:24:36;;;;;;;7.05;2.55;;;22.80;99.90;;;;;;5029664;28;20433;-76
2023/07/18 11:27:15;;;;;;;6.93;2.60;;;22.50;99.90;;;;;;4996328;28;20431;-76
2023/07/18 11:29:58;;;;;;;6.88;2.30;;;22.70;99.90;;;;;;5006739;28;20507;-76
2023/07/18 11:32:35;;;;;;;7.82;2.50;;;22.70;99.90;;;;;;4994308;28;20465;-76
2023/07/18 11:35:01;;;;;;;6.97;2.40;;;22.70;99.90;;;;;;5014694;28;20403;-76
2023/07/18 11:37:27;;;;;;;6.13;2.50;;;22.70;99.90;;;;;;5031561;28;20902;-75
2023/07/18 11:39:57;;;;;;;8.32;2.63;;;23.00;99.90;;;;;;5011736;28;20431;-75
2023/07/18 11:42:25;;;;;;;5.28;2.05;;;22.80;99.90;;;;;;5027661;28;20519;-76
2023/07/18 11:44:53;;;;;;;9.90;2.30;;;23.10;99.90;;;;;;5027760;28;20419;-75
2023/07/18 11:47:19;;;;;;;9.43;2.10;;;23.20;99.90;;;;;;5031575;28;20819;-75
2023/07/18 11:49:45;;;;;;;6.43;2.30;;;21.70;99.90;;;;;;5028928;28;20460;-76
2023/07/18 11:52:11;;;;;;;5.70;1.90;;;23.30;99.90;;;;;;5012950;28;20427;-75
2023/07/18 11:54:37;;;;;;;6.05;1.80;;;23.50;99.90;;;;;;5012695;28;20480;-74
2023/07/18 11:57:10;;;;;;;6.00;1.73;;;23.60;99.90;;;;;;4990179;28;20513;-76
2023/07/18 11:59:36;;;;;;;5.80;1.98;;;23.50;99.90;;;;;;4993150;28;20921;-76
2023/07/18 12:02:02;;;;;;;7.18;2.05;;;23.80;99.90;;;;;;5002785;28;20431;-76
2023/07/18 12:04:28;;;;;;;5.10;1.73;;;23.60;99.90;;;;;;5028112;28;20827;-76
2023/07/18 12:06:54;;;;;;;6.07;2.00;;;23.60;99.90;;;;;;5004523;28;20446;-76
2023/07/18 12:09:19;;;;;;;6.27;2.23;;;23.60;99.90;;;;;;4997517;28;20421;-75
2023/07/18 12:11:45;;;;;;;3.67;1.85;;;23.80;99.90;;;;;;5031910;28;20421;-76
2023/07/18 12:14:11;;;;;;;6.22;1.85;;;23.90;99.90;;;;;;5031397;28;20764;-75
2023/07/18 12:16:38;;;;;;;8.87;2.03;;;23.90;99.90;;;;;;5013653;28;20414;-75
2023/07/18 12:19:04;;;;;;;7.37;2.17;;;23.50;99.90;;;;;;5013282;28;20429;-76
2023/07/18 12:21:30;;;;;;;6.13;1.90;;;23.60;99.90;;;;;;5026565;28;20998;-76
2023/07/18 12:23:57;;;;;;;8.50;2.10;;;23.50;99.90;;;;;;5029656;28;20480;-77
2023/07/18 12:26:23;;;;;;;6.33;1.90;;;23.60;99.90;;;;;;4988569;28;20832;-76
2023/07/18 12:28:49;;;;;;;6.40;2.00;;;23.60;99.90;;;;;;5011671;28;20423;-76
2023/07/18 12:31:15;;;;;;;5.88;1.90;;;23.60;99.90;;;;;;5018959;28;20529;-76
2023/07/18 12:33:41;;;;;;;7.15;2.00;;;23.70;99.90;;;;;;5027857;28;20426;-76
2023/07/18 12:36:07;;;;;;;7.50;2.03;;;23.60;99.90;;;;;;5012866;28;20435;-75
2023/07/18 12:38:32;;;;;;;8.50;2.30;;;23.60;99.90;;;;;;5002805;28;20414;-76
2023/07/18 12:40:58;;;;;;;7.68;2.47;;;23.50;99.90;;;;;;5010882;28;20487;-75
2023/07/18 12:43:24;;;;;;;6.60;2.00;;;23.40;99.90;;;;;;5009904;28;20924;-74